createdAt,value
2022-10-20T00:00:39.607Z,16
2022-10-20T00:02:39.920Z,16
2022-10-20T00:04:39.764Z,15
2022-10-20T00:06:39.860Z,15
2022-10-20T00:08:40.026Z,14
2022-10-20T00:10:40.029Z,14
2022-10-20T00:12:40.124Z,14
2022-10-20T00:14:40.186Z,14
2022-10-20T00:16:40.281Z,14
2022-10-20T00:18:40.383Z,14
2022-10-20T00:20:40.478Z,14
2022-10-20T00:22:40.562Z,15
2022-10-20T00:24:40.671Z,15
2022-10-20T00:26:40.757Z,14
2022-10-20T00:28:40.859Z,14
2022-10-20T00:30:40.952Z,14
2022-10-20T00:32:41.040Z,14
2022-10-20T00:34:41.110Z,15
2022-10-20T00:36:41.201Z,14
2022-10-20T00:38:41.293Z,14
2022-10-20T00:40:41.386Z,14
2022-10-20T00:42:41.452Z,13
2022-10-20T00:44:41.543Z,14
2022-10-20T00:46:41.624Z,14
2022-10-20T00:48:41.704Z,14
2022-10-20T00:50:41.801Z,13
2022-10-20T00:52:41.858Z,13
2022-10-20T00:54:41.962Z,13
2022-10-20T00:56:42.059Z,13
2022-10-20T00:58:42.112Z,13
2022-10-20T01:00:42.207Z,13
2022-10-20T01:03:12.345Z,12
2022-10-20T01:05:12.457Z,14
2022-10-20T01:07:12.580Z,13
2022-10-20T01:09:12.791Z,13
2022-10-20T01:11:12.816Z,13
2022-10-20T01:13:12.927Z,13
2022-10-20T01:15:13.049Z,12
2022-10-20T01:19:13.214Z,14
2022-10-20T01:21:13.312Z,12
2022-10-20T01:23:13.427Z,13
2022-10-20T01:25:13.548Z,13
2022-10-20T01:27:13.617Z,14
2022-10-20T01:29:13.714Z,14
2022-10-20T01:31:13.837Z,15
2022-10-20T01:33:13.991Z,15
2022-10-20T01:35:14.065Z,14
2022-10-20T01:37:23.454Z,14
2022-10-20T01:39:14.247Z,13
2022-10-20T01:41:14.363Z,14
2022-10-20T01:43:19.541Z,14
2022-10-20T01:45:14.594Z,13
2022-10-20T01:47:14.681Z,14
2022-10-20T01:49:14.800Z,14
2022-10-20T01:51:14.898Z,15
2022-10-20T01:53:15.028Z,14
2022-10-20T01:55:15.121Z,14
2022-10-20T01:57:15.217Z,15
2022-10-20T01:59:15.324Z,15
2022-10-20T02:01:15.500Z,16
2022-10-20T02:03:15.553Z,16
2022-10-20T02:05:15.656Z,18
2022-10-20T02:07:15.756Z,18
2022-10-20T02:09:15.871Z,17
2022-10-20T02:11:15.946Z,16
2022-10-20T02:13:16.051Z,16
2022-10-20T02:15:16.161Z,17
2022-10-20T02:17:16.254Z,16
2022-10-20T02:21:16.446Z,15
2022-10-20T02:23:21.587Z,13
2022-10-20T02:25:16.667Z,13
2022-10-20T02:27:16.758Z,14
2022-10-20T02:29:16.828Z,13
2022-10-20T02:31:16.939Z,14
2022-10-20T02:33:17.055Z,13
2022-10-20T02:35:17.160Z,13
2022-10-20T02:39:17.339Z,12
2022-10-20T02:41:17.458Z,13
2022-10-20T02:43:17.577Z,13
2022-10-20T02:47:17.745Z,12
2022-10-20T02:51:17.925Z,12
2022-10-20T02:53:18.028Z,11
2022-10-20T02:57:18.237Z,12
2022-10-20T02:59:18.335Z,12
2022-10-20T03:01:18.435Z,12
2022-10-20T03:03:18.531Z,12
2022-10-20T03:05:18.604Z,12
2022-10-20T03:07:18.692Z,12
2022-10-20T03:09:18.805Z,12
2022-10-20T03:11:18.864Z,12
2022-10-20T03:13:18.999Z,12
2022-10-20T03:17:19.167Z,11
2022-10-20T03:19:19.274Z,12
2022-10-20T03:21:19.356Z,12
2022-10-20T03:23:20.172Z,12
2022-10-20T03:25:19.540Z,11
2022-10-20T03:27:19.630Z,11
2022-10-20T03:31:19.842Z,14
2022-10-20T03:33:19.929Z,14
2022-10-20T03:35:20.036Z,12
2022-10-20T03:37:20.124Z,11
2022-10-20T03:39:20.220Z,11
2022-10-20T03:41:20.317Z,11
2022-10-20T03:43:20.419Z,11
2022-10-20T03:45:20.504Z,11
2022-10-20T03:47:20.612Z,10
2022-10-20T03:49:20.700Z,11
2022-10-20T03:53:20.908Z,10
2022-10-20T03:55:21.003Z,10
2022-10-20T03:57:21.080Z,10
2022-10-20T04:01:21.330Z,10
2022-10-20T04:05:21.455Z,9
2022-10-20T04:07:21.555Z,11
2022-10-20T04:09:21.677Z,10
2022-10-20T04:11:21.711Z,10
2022-10-20T04:13:21.811Z,10
2022-10-20T04:15:21.895Z,10
2022-10-20T04:17:22.039Z,10
2022-10-20T04:19:22.090Z,10
2022-10-20T04:21:22.170Z,10
2022-10-20T04:25:22.338Z,10
2022-10-20T04:27:22.426Z,10
2022-10-20T04:29:22.539Z,10
2022-10-20T04:31:22.664Z,11
2022-10-20T04:33:22.689Z,11
2022-10-20T04:35:22.787Z,11
2022-10-20T04:39:22.937Z,11
2022-10-20T04:41:23.036Z,10
2022-10-20T04:43:23.112Z,10
2022-10-20T04:45:53.262Z,10
2022-10-20T04:47:53.385Z,10
2022-10-20T04:49:53.499Z,10
2022-10-20T04:53:53.782Z,10
2022-10-20T04:55:53.911Z,10
2022-10-20T04:57:53.979Z,10
2022-10-20T04:59:54.108Z,10
2022-10-20T05:01:54.275Z,10
2022-10-20T05:03:54.326Z,10
2022-10-20T05:05:54.424Z,10
2022-10-20T05:07:54.525Z,11
2022-10-20T05:09:54.646Z,10
2022-10-20T05:11:54.798Z,11
2022-10-20T05:13:54.865Z,10
2022-10-20T05:15:54.996Z,10
2022-10-20T05:17:55.085Z,11
2022-10-20T05:19:55.190Z,11
2022-10-20T05:21:55.309Z,12
2022-10-20T05:23:55.431Z,11
2022-10-20T05:25:55.522Z,13
2022-10-20T05:27:55.634Z,16
2022-10-20T05:29:55.758Z,15
2022-10-20T05:31:55.914Z,14
2022-10-20T05:33:55.969Z,14
2022-10-20T05:35:56.084Z,14
2022-10-20T05:37:56.187Z,16
2022-10-20T05:39:56.325Z,14
2022-10-20T05:41:56.413Z,13
2022-10-20T05:45:56.633Z,12
2022-10-20T05:47:56.768Z,11
2022-10-20T05:51:56.958Z,10
2022-10-20T05:55:57.193Z,10
2022-10-20T05:57:57.287Z,10
2022-10-20T05:59:57.408Z,11
2022-10-20T06:01:57.513Z,9
2022-10-20T06:03:57.624Z,10
2022-10-20T06:05:57.742Z,10
2022-10-20T06:07:57.850Z,9
2022-10-20T06:11:58.093Z,9
2022-10-20T06:13:58.167Z,11
2022-10-20T06:15:58.292Z,12
2022-10-20T06:17:58.362Z,12
2022-10-20T06:19:58.475Z,15
2022-10-20T06:22:02.538Z,15
2022-10-20T06:23:58.684Z,15
2022-10-20T06:25:58.786Z,16
2022-10-20T06:29:58.962Z,16
2022-10-20T06:31:59.072Z,16
2022-10-20T06:33:59.156Z,16
2022-10-20T06:35:59.270Z,15
2022-10-20T06:37:59.386Z,15
2022-10-20T06:39:59.500Z,15
2022-10-20T06:41:59.576Z,14
2022-10-20T06:43:59.714Z,14
2022-10-20T06:45:59.774Z,14
2022-10-20T06:47:59.881Z,15
2022-10-20T06:49:59.976Z,17
2022-10-20T06:52:00.132Z,16
2022-10-20T06:54:00.219Z,15
2022-10-20T06:56:00.284Z,16
2022-10-20T07:00:00.496Z,16
2022-10-20T07:02:00.668Z,16
2022-10-20T07:04:00.685Z,16
2022-10-20T07:06:00.775Z,17
2022-10-20T07:08:00.874Z,16
2022-10-20T07:10:00.992Z,16
2022-10-20T07:12:01.060Z,16
2022-10-20T07:14:01.212Z,17
2022-10-20T07:16:01.277Z,16
2022-10-20T07:18:01.354Z,16
2022-10-20T07:20:01.460Z,18
2022-10-20T07:22:01.561Z,15
2022-10-20T07:24:01.633Z,17
2022-10-20T07:26:01.734Z,18
2022-10-20T07:28:01.863Z,15
2022-10-20T07:30:01.937Z,13
2022-10-20T07:32:02.247Z,9
2022-10-20T07:34:13.248Z,8
2022-10-20T07:36:02.276Z,8
2022-10-20T07:38:02.295Z,9
2022-10-20T07:40:02.416Z,8
2022-10-20T07:42:02.501Z,7
2022-10-20T07:44:02.594Z,9
2022-10-20T07:46:02.674Z,8
2022-10-20T07:48:02.753Z,8
2022-10-20T07:50:02.841Z,8
2022-10-20T07:52:02.941Z,7
2022-10-20T07:54:03.040Z,7
2022-10-20T07:56:03.134Z,7
2022-10-20T07:58:03.216Z,7
2022-10-20T08:00:03.304Z,7
2022-10-20T08:02:03.462Z,6
2022-10-20T08:04:03.499Z,7
2022-10-20T08:08:03.661Z,6
2022-10-20T08:12:03.839Z,7
2022-10-20T08:14:03.938Z,6
2022-10-20T08:16:05.612Z,7
2022-10-20T08:18:04.108Z,6
2022-10-20T08:20:04.225Z,7
2022-10-20T08:22:04.309Z,7
2022-10-20T08:24:04.381Z,7
2022-10-20T08:26:09.167Z,7
2022-10-20T08:28:04.545Z,7
2022-10-20T08:30:22.921Z,6
2022-10-20T08:32:34.971Z,8
2022-10-20T08:34:34.854Z,7
2022-10-20T08:36:35.021Z,8
2022-10-20T08:38:35.090Z,7
2022-10-20T08:40:35.221Z,7
2022-10-20T08:42:35.312Z,6
2022-10-20T08:44:35.443Z,6
2022-10-20T08:48:35.666Z,5
2022-10-20T08:50:35.774Z,6
2022-10-20T08:52:35.890Z,6
2022-10-20T08:54:35.974Z,6
2022-10-20T08:56:36.287Z,6
2022-10-20T08:58:36.211Z,6
2022-10-20T09:00:36.315Z,6
2022-10-20T09:02:36.432Z,6
2022-10-20T09:04:36.574Z,5
2022-10-20T09:06:36.639Z,6
2022-10-20T09:08:36.773Z,6
2022-10-20T09:10:36.832Z,5
2022-10-20T09:12:36.946Z,5
2022-10-20T09:14:37.053Z,5
2022-10-20T09:16:42.248Z,5
2022-10-20T09:18:37.297Z,5
2022-10-20T09:20:37.369Z,5
2022-10-20T09:22:37.443Z,5
2022-10-20T09:24:37.569Z,4
2022-10-20T09:26:57.479Z,4
2022-10-20T09:28:55.407Z,4
2022-10-20T09:30:37.853Z,4
2022-10-20T09:34:38.063Z,4
2022-10-20T09:36:38.183Z,5
2022-10-20T09:38:38.290Z,4
2022-10-20T09:40:38.384Z,5
2022-10-20T09:44:38.586Z,4
2022-10-20T09:46:38.643Z,4
2022-10-20T09:48:38.753Z,4
2022-10-20T09:50:38.858Z,4
2022-10-20T09:54:39.066Z,4
2022-10-20T09:56:39.176Z,4
2022-10-20T09:58:39.451Z,4
2022-10-20T10:00:39.506Z,4
2022-10-20T10:02:39.597Z,4
2022-10-20T10:04:39.541Z,4
2022-10-20T10:06:39.632Z,4
2022-10-20T10:08:39.801Z,5
2022-10-20T10:10:39.823Z,4
2022-10-20T10:12:40.158Z,4
2022-10-20T10:14:40.011Z,4
2022-10-20T10:18:40.268Z,4
2022-10-20T10:20:40.297Z,4
2022-10-20T10:24:40.577Z,4
2022-10-20T10:26:40.590Z,4
2022-10-20T10:28:40.699Z,4
2022-10-20T10:30:40.765Z,4
2022-10-20T10:32:40.869Z,4
2022-10-20T10:34:41.064Z,4
2022-10-20T10:36:41.066Z,4
2022-10-20T10:40:41.222Z,4
2022-10-20T10:42:41.324Z,4
2022-10-20T10:46:41.565Z,4
2022-10-20T10:48:41.598Z,8
2022-10-20T10:50:41.674Z,4
2022-10-20T10:52:41.754Z,4
2022-10-20T10:54:41.852Z,4
2022-10-20T10:56:41.953Z,4
2022-10-20T10:58:42.033Z,4
2022-10-20T11:00:42.280Z,4
2022-10-20T11:02:42.225Z,5
2022-10-20T11:04:42.279Z,4
2022-10-20T11:06:42.477Z,4
2022-10-20T11:08:42.505Z,4
2022-10-20T11:11:12.566Z,4
2022-10-20T11:13:12.708Z,4
2022-10-20T11:15:12.805Z,4
2022-10-20T11:17:12.932Z,4
2022-10-20T11:23:13.232Z,4
2022-10-20T11:25:13.331Z,4
2022-10-20T11:27:13.435Z,4
2022-10-20T11:29:13.551Z,4
2022-10-20T11:31:13.671Z,4
2022-10-20T11:35:13.890Z,4
2022-10-20T11:37:14.021Z,4
2022-10-20T11:39:14.107Z,4
2022-10-20T11:41:14.181Z,4
2022-10-20T11:43:14.307Z,4
2022-10-20T11:45:14.377Z,4
2022-10-20T11:47:14.475Z,4
2022-10-20T11:49:14.586Z,5
2022-10-20T11:51:14.659Z,4
2022-10-20T11:53:14.745Z,4
2022-10-20T11:55:14.834Z,4
2022-10-20T11:57:14.958Z,4
2022-10-20T11:59:15.037Z,4
2022-10-20T12:01:15.123Z,4
2022-10-20T12:03:15.226Z,4
2022-10-20T12:05:15.296Z,4
2022-10-20T12:07:15.452Z,4
2022-10-20T12:09:15.693Z,4
2022-10-20T12:11:15.602Z,4
2022-10-20T12:15:18.933Z,4
2022-10-20T12:17:15.868Z,4
2022-10-20T12:19:15.969Z,4
2022-10-20T12:21:16.052Z,3
2022-10-20T12:23:16.145Z,4
2022-10-20T12:25:16.270Z,4
2022-10-20T12:27:16.394Z,3
2022-10-20T12:29:16.453Z,4
2022-10-20T12:33:16.659Z,4
2022-10-20T12:35:16.735Z,4
2022-10-20T12:37:16.845Z,4
2022-10-20T12:39:16.898Z,4
2022-10-20T12:41:16.994Z,4
2022-10-20T12:43:17.090Z,4
2022-10-20T12:45:17.185Z,4
2022-10-20T12:47:17.279Z,4
2022-10-20T12:49:17.380Z,4
2022-10-20T12:51:17.441Z,3
2022-10-20T12:53:17.540Z,3
2022-10-20T12:55:17.798Z,4
2022-10-20T12:57:17.759Z,4
2022-10-20T13:01:17.998Z,3
2022-10-20T13:03:18.425Z,4
2022-10-20T13:05:18.079Z,3
2022-10-20T13:07:18.168Z,4
2022-10-20T13:09:18.299Z,4
2022-10-20T13:11:18.307Z,3
2022-10-20T13:13:18.412Z,4
2022-10-20T13:15:18.459Z,3
2022-10-20T13:17:18.564Z,3
2022-10-20T13:19:18.645Z,4
2022-10-20T13:23:18.806Z,4
2022-10-20T13:25:18.898Z,4
2022-10-20T13:27:18.974Z,5
2022-10-20T13:29:49.110Z,4
2022-10-20T13:31:49.301Z,4
2022-10-20T13:34:03.984Z,4
2022-10-20T13:35:49.443Z,4
2022-10-20T13:37:49.566Z,4
2022-10-20T13:39:49.686Z,4
2022-10-20T13:41:49.817Z,3
2022-10-20T13:43:53.836Z,5
2022-10-20T13:45:50.021Z,5
2022-10-20T13:47:50.121Z,4
2022-10-20T13:49:52.760Z,5
2022-10-20T13:51:50.393Z,5
2022-10-20T13:55:50.574Z,5
2022-10-20T13:59:50.774Z,5
2022-10-20T14:01:50.873Z,5
2022-10-20T14:03:50.974Z,5
2022-10-20T14:05:51.112Z,5
2022-10-20T14:07:51.198Z,8
2022-10-20T14:09:52.641Z,7
2022-10-20T14:11:51.466Z,4
2022-10-20T14:13:51.534Z,7
2022-10-20T14:15:51.647Z,6
2022-10-20T14:17:51.807Z,5
2022-10-20T14:19:51.842Z,5
2022-10-20T14:21:51.933Z,5
2022-10-20T14:23:52.047Z,6
2022-10-20T14:25:52.125Z,8
2022-10-20T14:27:52.233Z,8
2022-10-20T14:29:52.327Z,5
2022-10-20T14:31:52.421Z,6
2022-10-20T14:37:52.773Z,5
2022-10-20T14:39:52.833Z,6
2022-10-20T14:41:52.941Z,4
2022-10-20T14:43:53.036Z,7
2022-10-20T14:45:53.131Z,6
2022-10-20T14:47:53.243Z,6
2022-10-20T14:49:53.323Z,5
2022-10-20T14:51:53.428Z,6
2022-10-20T14:53:53.609Z,7
2022-10-20T14:55:53.620Z,6
2022-10-20T14:57:53.741Z,9
2022-10-20T14:59:53.807Z,9
2022-10-20T15:01:55.963Z,4
2022-10-20T15:03:54.142Z,8
2022-10-20T15:05:54.088Z,8
2022-10-20T15:07:54.166Z,11
2022-10-20T15:09:54.279Z,9
2022-10-20T15:11:54.355Z,7
2022-10-20T15:13:54.474Z,5
2022-10-20T15:15:54.513Z,6
2022-10-20T15:17:54.656Z,6
2022-10-20T15:19:54.700Z,6
2022-10-20T15:21:54.789Z,11
2022-10-20T15:23:54.877Z,16
2022-10-20T15:25:54.952Z,10
2022-10-20T15:27:55.066Z,9
2022-10-20T15:29:55.142Z,10
2022-10-20T15:31:55.245Z,7
2022-10-20T15:33:55.347Z,15
2022-10-20T15:35:55.431Z,14
2022-10-20T15:37:55.542Z,9
2022-10-20T15:39:55.618Z,7
2022-10-20T15:41:55.701Z,6
2022-10-20T15:43:55.825Z,6
2022-10-20T15:45:55.879Z,8
2022-10-20T15:47:55.957Z,8
2022-10-20T15:49:56.088Z,7
2022-10-20T15:51:56.140Z,8
2022-10-20T15:53:56.218Z,9
2022-10-20T15:56:26.380Z,8
2022-10-20T15:58:26.493Z,9
2022-10-20T16:00:26.611Z,8
2022-10-20T16:02:26.714Z,7
2022-10-20T16:04:26.825Z,8
2022-10-20T16:06:26.948Z,10
2022-10-20T16:08:27.075Z,11
2022-10-20T16:10:27.140Z,14
2022-10-20T16:12:27.234Z,13
2022-10-20T16:14:27.362Z,12
2022-10-20T16:16:27.467Z,17
2022-10-20T16:18:27.579Z,16
2022-10-20T16:20:27.708Z,16
2022-10-20T16:22:27.836Z,41
2022-10-20T16:24:27.936Z,39
2022-10-20T16:26:28.058Z,50
2022-10-20T16:28:28.124Z,50
2022-10-20T16:30:28.247Z,57
2022-10-20T16:32:32.859Z,43
2022-10-20T16:34:28.459Z,74
2022-10-20T16:36:28.612Z,43
2022-10-20T16:38:28.642Z,66
2022-10-20T16:40:28.755Z,85
2022-10-20T16:42:28.880Z,52
2022-10-20T16:44:28.969Z,34
2022-10-20T16:46:29.076Z,43
2022-10-20T16:48:29.179Z,41
2022-10-20T16:50:29.294Z,29
2022-10-20T16:52:29.400Z,49
2022-10-20T16:54:29.571Z,36
2022-10-20T16:56:29.616Z,20
2022-10-20T16:58:29.732Z,22
2022-10-20T17:00:29.853Z,15
2022-10-20T17:02:29.966Z,28
2022-10-20T17:04:30.069Z,32
2022-10-20T17:06:30.183Z,33
2022-10-20T17:08:30.326Z,22
2022-10-20T17:10:30.387Z,72
2022-10-20T17:12:30.482Z,29
2022-10-20T17:14:30.595Z,11
2022-10-20T17:16:30.744Z,12
2022-10-20T17:18:30.814Z,21
2022-10-20T17:20:30.910Z,13
2022-10-20T17:22:31.019Z,12
2022-10-20T17:24:31.129Z,14
2022-10-20T17:26:31.259Z,13
2022-10-20T17:28:31.332Z,17
2022-10-20T17:30:31.431Z,13
2022-10-20T17:32:31.540Z,13
2022-10-20T17:34:31.648Z,15
2022-10-20T17:36:31.765Z,18
2022-10-20T17:38:31.856Z,21
2022-10-20T17:40:31.955Z,36
2022-10-20T17:42:32.077Z,26
2022-10-20T17:44:32.158Z,19
2022-10-20T17:46:32.243Z,16
2022-10-20T17:48:32.340Z,19
2022-10-20T17:50:32.437Z,20
2022-10-20T17:52:32.551Z,17
2022-10-20T17:54:32.617Z,28
2022-10-20T17:56:32.730Z,33
2022-10-20T17:58:32.879Z,22
2022-10-20T18:00:51.485Z,26
2022-10-20T18:02:32.995Z,22
2022-10-20T18:04:33.061Z,23
2022-10-20T18:06:34.408Z,15
2022-10-20T18:08:33.260Z,19
2022-10-20T18:10:33.355Z,13
2022-10-20T18:12:33.436Z,16
2022-10-20T18:14:33.509Z,14
2022-10-20T18:16:33.613Z,11
2022-10-20T18:18:33.749Z,12
2022-10-20T18:20:34.433Z,12
2022-10-20T18:22:33.900Z,11
2022-10-20T18:24:33.983Z,10
2022-10-20T18:26:34.096Z,9
2022-10-20T18:28:34.172Z,10
2022-10-20T18:30:34.258Z,9
2022-10-20T18:32:34.586Z,13
2022-10-20T18:34:34.457Z,20
2022-10-20T18:36:34.547Z,25
2022-10-20T18:38:34.630Z,25
2022-10-20T18:40:34.730Z,22
2022-10-20T18:42:34.825Z,21
2022-10-20T18:44:34.916Z,19
2022-10-20T18:46:35.004Z,17
2022-10-20T18:48:35.103Z,16
2022-10-20T18:50:35.220Z,17
2022-10-20T18:52:35.299Z,19
2022-10-20T18:54:35.364Z,18
2022-10-20T18:56:35.454Z,26
2022-10-20T18:58:35.553Z,28
2022-10-20T19:00:35.703Z,28
2022-10-20T19:02:35.821Z,23
2022-10-20T19:04:35.791Z,25
2022-10-20T19:06:35.929Z,25
2022-10-20T19:08:36.019Z,26
2022-10-20T19:10:36.068Z,30
2022-10-20T19:12:36.449Z,31
2022-10-20T19:14:36.267Z,29
2022-10-20T19:16:36.347Z,30
2022-10-20T19:18:36.439Z,31
2022-10-20T19:20:36.578Z,31
2022-10-20T19:23:06.675Z,31
2022-10-20T19:25:06.764Z,35
2022-10-20T19:27:26.523Z,39
2022-10-20T19:29:06.999Z,41
2022-10-20T19:31:14.129Z,35
2022-10-20T19:33:07.206Z,34
2022-10-20T19:35:07.315Z,35
2022-10-20T19:37:07.444Z,34
2022-10-20T19:39:07.547Z,41
2022-10-20T19:41:07.721Z,42
2022-10-20T19:43:07.804Z,37
2022-10-20T19:45:07.908Z,35
2022-10-20T19:47:08.141Z,37
2022-10-20T19:51:08.245Z,42
2022-10-20T19:53:08.351Z,39
2022-10-20T19:55:08.445Z,45
2022-10-20T19:57:08.564Z,37
2022-10-20T19:59:08.686Z,33
2022-10-20T20:01:08.833Z,35
2022-10-20T20:03:08.939Z,35
2022-10-20T20:05:08.996Z,34
2022-10-20T20:07:09.208Z,33
2022-10-20T20:09:09.318Z,30
2022-10-20T20:11:09.337Z,28
2022-10-20T20:13:09.450Z,28
2022-10-20T20:15:09.573Z,26
2022-10-20T20:17:10.999Z,24
2022-10-20T20:19:09.787Z,27
2022-10-20T20:21:09.911Z,26
2022-10-20T20:25:10.086Z,25
2022-10-20T20:27:10.218Z,25
2022-10-20T20:29:10.316Z,24
2022-10-20T20:31:10.410Z,22
2022-10-20T20:33:10.531Z,20
2022-10-20T20:35:10.644Z,21
2022-10-20T20:37:10.730Z,20
2022-10-20T20:39:10.852Z,19
2022-10-20T20:41:10.949Z,20
2022-10-20T20:43:11.053Z,21
2022-10-20T20:45:11.165Z,20
2022-10-20T20:47:11.305Z,22
2022-10-20T20:49:11.397Z,22
2022-10-20T20:51:11.492Z,23
2022-10-20T20:53:11.609Z,25
2022-10-20T20:55:11.718Z,24
2022-10-20T20:57:11.808Z,25
2022-10-20T20:59:11.914Z,27
2022-10-20T21:01:12.074Z,26
2022-10-20T21:03:12.162Z,26
2022-10-20T21:05:12.238Z,23
2022-10-20T21:07:12.350Z,19
2022-10-20T21:09:12.541Z,18
2022-10-20T21:11:12.538Z,14
2022-10-20T21:13:12.644Z,14
2022-10-20T21:15:12.751Z,12
2022-10-20T21:17:12.847Z,15
2022-10-20T21:19:12.966Z,18
2022-10-20T21:21:13.173Z,19
2022-10-20T21:23:13.181Z,21
2022-10-20T21:25:13.262Z,19
2022-10-20T21:29:13.489Z,20
2022-10-20T21:31:13.629Z,23
2022-10-20T21:33:13.714Z,22
2022-10-20T21:35:13.823Z,22
2022-10-20T21:37:13.928Z,21
2022-10-20T21:39:14.035Z,22
2022-10-20T21:41:14.124Z,23
2022-10-20T21:43:14.258Z,19
2022-10-20T21:45:16.858Z,17
2022-10-20T21:47:14.469Z,17
2022-10-20T21:49:14.519Z,18
2022-10-20T21:51:14.616Z,18
2022-10-20T21:53:14.716Z,17
2022-10-20T21:55:14.855Z,15
2022-10-20T21:57:14.890Z,16
2022-10-20T21:59:15.003Z,26
2022-10-20T22:01:15.306Z,23
2022-10-20T22:03:15.211Z,23
2022-10-20T22:05:15.337Z,19
2022-10-20T22:07:15.396Z,17
2022-10-20T22:09:15.580Z,19
2022-10-20T22:11:15.593Z,19
2022-10-20T22:13:15.676Z,19
2022-10-20T22:17:15.869Z,18
2022-10-20T22:19:15.972Z,19
2022-10-20T22:21:16.080Z,17
2022-10-20T22:23:16.193Z,17
2022-10-20T22:25:16.330Z,16
2022-10-20T22:27:25.340Z,17
2022-10-20T22:29:16.466Z,17
2022-10-20T22:31:18.107Z,18
2022-10-20T22:33:16.647Z,18
2022-10-20T22:35:16.754Z,18
2022-10-20T22:37:16.869Z,18
2022-10-20T22:39:16.977Z,18
2022-10-20T22:41:17.071Z,18
2022-10-20T22:43:17.171Z,18
2022-10-20T22:45:17.237Z,17
2022-10-20T22:47:17.348Z,17
2022-10-20T22:49:17.448Z,16
2022-10-20T22:51:17.553Z,14
2022-10-20T22:53:17.634Z,15
2022-10-20T22:55:17.747Z,16
2022-10-20T22:57:17.827Z,15
2022-10-20T22:59:17.941Z,14
2022-10-20T23:01:18.081Z,13
2022-10-20T23:03:18.115Z,13
2022-10-20T23:05:18.177Z,12
2022-10-20T23:07:18.282Z,12
2022-10-20T23:09:18.445Z,12
2022-10-20T23:11:18.449Z,12
2022-10-20T23:15:18.649Z,12
2022-10-20T23:17:18.744Z,11
2022-10-20T23:19:18.850Z,11
2022-10-20T23:23:19.049Z,11
2022-10-20T23:25:19.123Z,12
2022-10-20T23:27:19.248Z,11
2022-10-20T23:29:19.295Z,12
2022-10-20T23:31:19.378Z,11
2022-10-20T23:33:19.471Z,11
2022-10-20T23:35:19.571Z,11
2022-10-20T23:37:19.676Z,11
2022-10-20T23:39:19.776Z,11
2022-10-20T23:41:19.865Z,12
2022-10-20T23:43:19.968Z,11
2022-10-20T23:45:20.051Z,11
2022-10-20T23:47:20.198Z,11
2022-10-20T23:49:20.236Z,10
2022-10-20T23:51:20.306Z,10
2022-10-20T23:53:20.406Z,9
2022-10-20T23:55:20.494Z,9
2022-10-20T23:57:20.600Z,10
2022-10-20T23:59:20.701Z,9
